createdAt,value
2019-03-05T00:01:25.450Z,3.67
2019-03-05T00:03:55.353Z,3.37
2019-03-05T00:06:25.269Z,3.00
2019-03-05T00:08:55.259Z,3.33
2019-03-05T00:11:25.160Z,3.50
2019-03-05T00:13:55.445Z,3.40
2019-03-05T00:16:25.335Z,3.73
2019-03-05T00:18:55.821Z,3.50
2019-03-05T00:21:25.776Z,3.70
2019-03-05T00:24:17.423Z,3.50
2019-03-05T00:26:48.188Z,4.30
2019-03-05T00:30:21.796Z,3.97
2019-03-05T00:33:00.792Z,4.00
2019-03-05T00:35:58.861Z,4.10
2019-03-05T00:39:01.107Z,3.97
2019-03-05T00:42:05.199Z,4.10
2019-03-05T00:45:34.668Z,3.83
2019-03-05T00:48:49.966Z,3.90
2019-03-05T00:52:15.812Z,4.70
2019-03-05T00:55:46.315Z,5.13
2019-03-05T00:58:25.930Z,5.37
2019-03-05T01:01:38.931Z,4.67
2019-03-05T01:05:24.110Z,4.83
2019-03-05T01:07:54.250Z,4.70
2019-03-05T01:10:24.913Z,4.83
2019-03-05T01:12:55.237Z,4.67
2019-03-05T01:15:25.346Z,4.13
2019-03-05T01:17:55.326Z,4.47
2019-03-05T01:20:25.345Z,5.07
2019-03-05T01:22:55.365Z,5.03
2019-03-05T01:25:31.400Z,4.70
2019-03-05T01:28:01.722Z,4.57
2019-03-05T01:30:58.315Z,4.00
2019-03-05T01:33:31.574Z,4.00
2019-03-05T01:36:06.327Z,3.90
2019-03-05T01:38:46.167Z,4.20
2019-03-05T01:41:16.166Z,4.07
2019-03-05T01:43:46.311Z,4.10
2019-03-05T01:46:16.400Z,3.80
2019-03-05T01:48:46.346Z,3.77
2019-03-05T01:51:16.289Z,3.90
2019-03-05T01:53:46.166Z,3.73
2019-03-05T01:56:16.101Z,4.13
2019-03-05T01:58:45.984Z,3.37
2019-03-05T02:01:16.178Z,3.67
2019-03-05T02:03:46.299Z,3.50
2019-03-05T02:06:16.501Z,3.43
2019-03-05T02:08:46.674Z,3.60
2019-03-05T02:11:17.791Z,3.73
2019-03-05T02:13:48.138Z,3.23
2019-03-05T02:16:18.278Z,3.07
2019-03-05T02:18:48.203Z,2.60
2019-03-05T02:21:18.512Z,3.00
2019-03-05T02:24:58.203Z,2.77
2019-03-05T02:27:52.828Z,2.77
2019-03-05T02:30:39.204Z,2.43
2019-03-05T02:33:27.518Z,2.30
2019-03-05T02:36:39.018Z,2.77
2019-03-05T02:40:05.630Z,3.03
2019-03-05T02:43:38.657Z,3.13
2019-03-05T02:46:59.056Z,3.00
2019-03-05T02:50:32.001Z,3.33
2019-03-05T02:53:30.673Z,3.13
2019-03-05T02:56:38.083Z,2.90
2019-03-05T03:02:05.509Z,3.57
2019-03-05T03:04:39.724Z,2.90
2019-03-05T03:07:10.013Z,3.07
2019-03-05T03:10:19.313Z,3.10
2019-03-05T03:12:49.345Z,3.30
2019-03-05T03:15:20.148Z,3.00
2019-03-05T03:17:51.442Z,3.27
2019-03-05T03:20:23.022Z,3.07
2019-03-05T03:22:53.479Z,3.30
2019-03-05T03:25:25.115Z,3.30
2019-03-05T03:27:55.358Z,2.43
2019-03-05T03:30:27.315Z,2.87
2019-03-05T03:32:57.428Z,2.90
2019-03-05T03:35:27.813Z,3.07
2019-03-05T03:37:57.712Z,3.47
2019-03-05T03:40:27.718Z,3.33
2019-03-05T03:42:58.103Z,2.47
2019-03-05T03:45:28.661Z,2.77
2019-03-05T03:47:58.788Z,2.60
2019-03-05T03:50:28.981Z,2.63
2019-03-05T03:52:59.230Z,2.27
2019-03-05T03:55:29.268Z,2.53
2019-03-05T03:57:59.511Z,3.00
2019-03-05T04:00:29.571Z,2.30
2019-03-05T04:02:59.524Z,2.17
2019-03-05T04:05:29.441Z,2.47
2019-03-05T04:07:59.522Z,2.40
2019-03-05T04:10:29.408Z,2.10
2019-03-05T04:12:59.311Z,2.13
2019-03-05T04:15:29.240Z,2.37
2019-03-05T04:17:59.187Z,2.20
2019-03-05T04:20:38.869Z,2.10
2019-03-05T04:23:09.133Z,2.50
2019-03-05T04:25:39.017Z,2.40
2019-03-05T04:28:09.418Z,2.50
2019-03-05T04:30:39.424Z,2.87
2019-03-05T04:33:09.939Z,2.67
2019-03-05T04:35:39.824Z,2.83
2019-03-05T04:38:09.767Z,2.90
2019-03-05T04:40:40.384Z,2.60
2019-03-05T04:43:10.702Z,2.90
2019-03-05T04:45:45.931Z,3.20
2019-03-05T04:48:16.356Z,3.13
2019-03-05T04:51:23.283Z,3.20
2019-03-05T04:53:53.316Z,2.93
2019-03-05T04:56:23.222Z,3.57
2019-03-05T04:58:53.157Z,3.40
2019-03-05T05:01:23.638Z,3.33
2019-03-05T05:03:53.769Z,3.77
2019-03-05T05:06:23.956Z,3.60
2019-03-05T05:08:53.862Z,3.77
2019-03-05T05:11:23.786Z,3.97
2019-03-05T05:13:55.190Z,3.63
2019-03-05T05:16:25.172Z,4.10
2019-03-05T05:18:55.103Z,3.77
2019-03-05T05:21:24.983Z,4.57
2019-03-05T05:23:55.232Z,4.30
2019-03-05T05:26:25.170Z,4.67
2019-03-05T05:28:55.061Z,4.53
2019-03-05T05:31:24.975Z,4.70
2019-03-05T05:33:54.894Z,4.47
2019-03-05T05:36:25.626Z,4.30
2019-03-05T05:38:55.635Z,4.83
2019-03-05T05:41:25.592Z,5.17
2019-03-05T05:43:55.523Z,5.27
2019-03-05T05:46:25.495Z,4.90
2019-03-05T05:48:57.229Z,5.60
2019-03-05T05:51:27.393Z,5.73
2019-03-05T05:53:57.287Z,5.53
2019-03-05T05:56:27.182Z,5.53
2019-03-05T05:58:57.117Z,5.50
2019-03-05T06:01:27.648Z,6.07
2019-03-05T06:03:57.604Z,5.77
2019-03-05T06:06:27.612Z,5.67
2019-03-05T06:08:57.493Z,6.10
2019-03-05T06:11:27.465Z,6.03
2019-03-05T06:13:57.367Z,5.90
2019-03-05T06:16:27.268Z,5.60
2019-03-05T06:18:57.189Z,5.50
2019-03-05T06:21:27.592Z,6.40
2019-03-05T06:23:57.482Z,6.70
2019-03-05T06:26:27.469Z,6.13
2019-03-05T06:28:57.383Z,5.40
2019-03-05T06:31:27.345Z,6.40
2019-03-05T06:33:57.283Z,6.37
2019-03-05T06:36:28.731Z,6.20
2019-03-05T06:38:59.037Z,5.77
2019-03-05T06:41:29.162Z,5.90
2019-03-05T06:43:59.418Z,5.80
2019-03-05T06:46:29.346Z,5.97
2019-03-05T06:48:59.279Z,5.90
2019-03-05T06:51:29.651Z,5.80
2019-03-05T06:53:59.810Z,5.47
2019-03-05T06:56:29.949Z,5.97
2019-03-05T06:59:00.093Z,5.80
2019-03-05T07:01:30.267Z,5.40
2019-03-05T07:04:00.430Z,6.40
2019-03-05T07:06:57.243Z,5.63
2019-03-05T07:09:57.536Z,5.13
2019-03-05T07:12:59.898Z,5.23
2019-03-05T07:16:13.482Z,6.00
2019-03-05T07:18:57.480Z,5.57
2019-03-05T07:22:02.955Z,7.33
2019-03-05T07:24:47.799Z,5.00
2019-03-05T07:27:36.804Z,5.57
2019-03-05T07:30:27.043Z,5.07
2019-03-05T07:32:58.909Z,4.77
2019-03-05T07:35:30.740Z,4.90
2019-03-05T07:38:01.009Z,5.00
2019-03-05T07:40:33.184Z,4.80
2019-03-05T07:43:03.425Z,4.70
2019-03-05T07:45:33.461Z,4.37
2019-03-05T07:48:03.447Z,4.53
2019-03-05T07:50:33.407Z,9.43
2019-03-05T07:53:03.682Z,4.73
2019-03-05T07:55:33.724Z,4.43
2019-03-05T07:58:03.692Z,4.83
2019-03-05T08:00:33.715Z,4.73
2019-03-05T08:03:03.854Z,5.50
2019-03-05T08:05:33.912Z,4.67
2019-03-05T08:08:58.776Z,5.27
2019-03-05T08:11:31.677Z,5.61
2019-03-05T08:14:37.829Z,5.03
2019-03-05T08:17:08.410Z,4.63
2019-03-05T08:19:39.091Z,5.10
2019-03-05T08:22:09.854Z,4.80
2019-03-05T08:24:40.103Z,5.33
2019-03-05T08:27:10.339Z,4.80
2019-03-05T08:29:40.733Z,5.37
2019-03-05T08:32:11.403Z,4.40
2019-03-05T08:34:41.371Z,5.53
2019-03-05T08:37:13.322Z,4.93
2019-03-05T08:39:43.311Z,5.13
2019-03-05T08:42:14.211Z,4.37
2019-03-05T08:44:50.415Z,4.17
2019-03-05T08:47:16.678Z,4.17
2019-03-05T08:49:46.977Z,4.10
2019-03-05T08:52:17.511Z,3.90
2019-03-05T08:54:47.580Z,3.97
2019-03-05T08:57:17.704Z,4.17
2019-03-05T08:59:47.995Z,3.53
2019-03-05T09:02:18.179Z,3.67
2019-03-05T09:04:48.243Z,4.30
2019-03-05T09:07:18.564Z,3.57
2019-03-05T09:09:48.470Z,3.70
2019-03-05T09:12:18.614Z,3.10
2019-03-05T09:14:48.660Z,3.53
2019-03-05T09:17:19.403Z,4.03
2019-03-05T09:19:49.485Z,2.90
2019-03-05T09:22:19.470Z,3.33
2019-03-05T09:24:49.496Z,2.70
2019-03-05T09:27:19.497Z,3.10
2019-03-05T09:29:49.674Z,2.90
2019-03-05T09:32:19.692Z,2.63
2019-03-05T09:34:49.972Z,2.90
2019-03-05T09:37:19.891Z,2.80
2019-03-05T09:39:49.881Z,3.00
2019-03-05T09:42:20.339Z,3.00
2019-03-05T09:44:50.325Z,3.50
2019-03-05T09:47:20.491Z,3.60
2019-03-05T09:49:50.641Z,3.67
2019-03-05T09:52:20.588Z,3.60
2019-03-05T09:54:50.717Z,3.40
2019-03-05T09:57:21.104Z,3.33
2019-03-05T09:59:51.076Z,3.47
2019-03-05T10:02:21.369Z,3.20
2019-03-05T10:04:51.265Z,3.50
2019-03-05T10:07:21.204Z,4.23
2019-03-05T10:09:51.113Z,3.83
2019-03-05T10:12:21.354Z,3.60
2019-03-05T10:14:51.418Z,3.70
2019-03-05T10:17:21.327Z,3.50
2019-03-05T10:19:51.675Z,3.60
2019-03-05T10:22:21.582Z,3.70
2019-03-05T10:24:52.069Z,4.67
2019-03-05T10:27:22.138Z,4.50
2019-03-05T10:29:52.500Z,3.97
2019-03-05T10:32:22.475Z,3.60
2019-03-05T10:34:52.493Z,3.43
2019-03-05T10:37:22.805Z,3.93
2019-03-05T10:39:53.043Z,4.00
2019-03-05T10:42:23.142Z,3.40
2019-03-05T10:44:53.174Z,3.43
2019-03-05T10:47:23.207Z,3.63
2019-03-05T10:49:53.316Z,3.43
2019-03-05T10:52:23.402Z,3.00
2019-03-05T10:54:53.881Z,3.77
2019-03-05T10:57:24.153Z,3.70
2019-03-05T10:59:54.068Z,2.90
2019-03-05T11:02:24.123Z,3.20
2019-03-05T11:04:56.620Z,3.63
2019-03-05T11:07:26.677Z,3.53
2019-03-05T11:09:57.036Z,3.20
2019-03-05T11:12:27.485Z,3.60
2019-03-05T11:14:57.393Z,3.20
2019-03-05T11:17:27.432Z,3.20
2019-03-05T11:19:57.575Z,3.50
2019-03-05T11:22:27.650Z,3.30
2019-03-05T11:24:57.588Z,3.00
2019-03-05T11:27:27.543Z,3.20
2019-03-05T11:29:57.700Z,3.17
2019-03-05T11:32:27.614Z,2.97
2019-03-05T11:34:57.640Z,3.07
2019-03-05T11:37:27.803Z,2.80
2019-03-05T11:39:58.080Z,2.67
2019-03-05T11:42:28.217Z,2.73
2019-03-05T11:45:07.101Z,3.00
2019-03-05T11:47:30.299Z,2.73
2019-03-05T11:50:00.336Z,2.97
2019-03-05T11:52:30.395Z,2.93
2019-03-05T11:55:00.345Z,2.40
2019-03-05T11:57:30.367Z,2.63
2019-03-05T12:00:00.451Z,2.70
2019-03-05T12:02:30.430Z,2.73
2019-03-05T12:05:00.367Z,2.67
2019-03-05T12:07:30.280Z,2.60
2019-03-05T12:10:00.406Z,2.40
2019-03-05T12:12:30.813Z,2.83
2019-03-05T12:15:00.885Z,2.30
2019-03-05T12:17:31.098Z,2.90
2019-03-05T12:20:01.062Z,2.27
2019-03-05T12:22:31.477Z,2.57
2019-03-05T12:25:03.655Z,2.47
2019-03-05T12:27:35.802Z,2.20
2019-03-05T12:30:05.926Z,2.83
2019-03-05T12:32:35.972Z,2.60
2019-03-05T12:35:07.047Z,2.53
2019-03-05T12:37:36.995Z,3.13
2019-03-05T12:40:08.705Z,2.80
2019-03-05T12:42:39.075Z,2.50
2019-03-05T12:45:10.337Z,2.93
2019-03-05T12:47:40.391Z,3.10
2019-03-05T12:50:15.201Z,2.80
2019-03-05T12:52:46.187Z,3.43
2019-03-05T12:55:16.696Z,2.70
2019-03-05T12:57:46.860Z,2.67
2019-03-05T13:00:21.585Z,3.10
2019-03-05T13:02:51.913Z,3.27
2019-03-05T13:05:22.244Z,3.07
2019-03-05T13:07:55.940Z,3.03
2019-03-05T13:10:24.440Z,3.37
2019-03-05T13:12:54.547Z,3.60
2019-03-05T13:15:27.985Z,4.10
2019-03-05T13:17:58.005Z,4.53
2019-03-05T13:20:27.903Z,5.50
2019-03-05T13:22:57.894Z,4.90
2019-03-05T13:25:28.683Z,5.90
2019-03-05T13:28:02.063Z,4.93
2019-03-05T13:30:32.518Z,5.07
2019-03-05T13:33:02.498Z,4.33
2019-03-05T13:35:32.723Z,4.50
2019-03-05T13:38:06.906Z,3.83
2019-03-05T13:40:38.360Z,4.33
2019-03-05T13:43:07.300Z,4.20
2019-03-05T13:45:37.493Z,4.10
2019-03-05T13:48:58.418Z,3.80
2019-03-05T13:52:28.141Z,3.70
2019-03-05T13:55:51.947Z,3.80
2019-03-05T13:59:09.211Z,3.00
2019-03-05T14:01:39.445Z,2.90
2019-03-05T14:04:16.716Z,3.10
2019-03-05T14:07:58.130Z,2.80
2019-03-05T14:10:34.927Z,2.93
2019-03-05T14:13:05.417Z,2.50
2019-03-05T14:15:38.488Z,2.83
2019-03-05T14:18:08.964Z,2.63
2019-03-05T14:20:38.913Z,2.93
2019-03-05T14:23:09.210Z,3.23
2019-03-05T14:25:45.298Z,3.13
2019-03-05T14:28:15.533Z,2.90
2019-03-05T14:30:45.890Z,3.10
2019-03-05T14:33:17.893Z,2.90
2019-03-05T14:35:51.522Z,2.80
2019-03-05T14:38:23.766Z,2.60
2019-03-05T14:41:00.322Z,2.37
2019-03-05T14:43:30.674Z,2.63
2019-03-05T14:46:01.378Z,2.60
2019-03-05T14:48:31.436Z,2.20
2019-03-05T14:51:01.456Z,3.90
2019-03-05T14:53:37.496Z,2.47
2019-03-05T14:56:08.366Z,2.40
2019-03-05T14:58:38.704Z,2.50
2019-03-05T15:01:31.312Z,2.40
2019-03-05T15:04:01.721Z,2.57
2019-03-05T15:06:32.366Z,2.37
2019-03-05T15:09:02.512Z,2.40
2019-03-05T15:11:32.881Z,2.50
2019-03-05T15:14:03.431Z,3.50
2019-03-05T15:16:38.611Z,2.63
2019-03-05T15:19:20.573Z,2.80
2019-03-05T15:21:41.184Z,3.03
2019-03-05T15:24:17.860Z,2.40
2019-03-05T15:26:48.229Z,2.50
2019-03-05T15:29:18.585Z,2.20
2019-03-05T15:31:48.855Z,3.63
2019-03-05T15:34:19.083Z,5.70
2019-03-05T15:36:52.140Z,2.67
2019-03-05T15:39:22.797Z,2.50
2019-03-05T15:41:53.078Z,2.43
2019-03-05T15:44:23.396Z,1.70
2019-03-05T15:46:53.796Z,1.93
2019-03-05T15:52:17.143Z,1.90
2019-03-05T15:54:47.425Z,2.27
2019-03-05T15:57:26.340Z,2.10
2019-03-05T16:00:07.860Z,2.10
2019-03-05T16:02:38.586Z,2.17
2019-03-05T16:05:31.194Z,2.47
2019-03-05T16:08:25.130Z,2.43
2019-03-05T16:14:16.201Z,2.73
2019-03-05T16:19:53.608Z,2.50
2019-03-05T16:22:24.558Z,2.50
2019-03-05T16:25:05.982Z,2.20
2019-03-05T16:27:39.972Z,2.03
2019-03-05T16:30:51.863Z,1.50
2019-03-05T16:33:41.832Z,1.40
2019-03-05T16:36:37.661Z,1.90
2019-03-05T16:39:27.440Z,2.40
2019-03-05T16:42:11.031Z,2.30
2019-03-05T16:45:55.053Z,1.97
2019-03-05T16:52:14.566Z,2.90
2019-03-05T16:55:17.772Z,2.43
2019-03-05T17:02:25.909Z,4.17
2019-03-05T17:10:01.701Z,2.57
2019-03-05T18:00:39.136Z,2.30
2019-03-05T18:03:32.611Z,2.20
2019-03-05T18:06:30.450Z,2.83
2019-03-05T18:13:11.808Z,4.60
2019-03-05T18:23:47.279Z,3.93
2019-03-05T18:29:18.333Z,3.20
2019-03-05T18:32:19.107Z,3.60
2019-03-05T18:38:05.848Z,3.77
2019-03-05T18:40:40.343Z,3.83
2019-03-05T18:43:18.257Z,3.80
2019-03-05T18:45:49.336Z,3.53
2019-03-05T18:48:19.663Z,3.87
2019-03-05T18:50:58.134Z,3.63
2019-03-05T18:53:29.355Z,5.10
2019-03-05T18:56:11.569Z,3.97
2019-03-05T18:58:44.563Z,4.87
2019-03-05T19:01:14.622Z,4.57
2019-03-05T19:03:57.029Z,4.63
2019-03-05T19:06:27.700Z,4.00
2019-03-05T19:09:01.609Z,3.80
2019-03-05T19:11:33.634Z,3.93
2019-03-05T19:14:04.631Z,4.20
2019-03-05T19:16:34.666Z,5.03
2019-03-05T19:19:05.091Z,5.10
2019-03-05T19:21:35.692Z,4.77
2019-03-05T19:24:09.350Z,4.53
2019-03-05T19:26:41.269Z,4.70
2019-03-05T19:29:11.483Z,4.90
2019-03-05T19:31:41.671Z,4.13
2019-03-05T19:34:11.968Z,4.60
2019-03-05T19:36:42.246Z,4.37
2019-03-05T19:39:15.069Z,5.23
2019-03-05T19:41:45.683Z,5.90
2019-03-05T19:44:15.693Z,5.27
2019-03-05T19:46:45.568Z,5.10
2019-03-05T19:49:15.960Z,5.53
2019-03-05T19:51:46.079Z,5.33
2019-03-05T19:54:16.140Z,4.73
2019-03-05T19:56:46.140Z,4.97
2019-03-05T19:59:16.476Z,5.37
2019-03-05T20:01:48.759Z,5.97
2019-03-05T20:04:18.626Z,5.50
2019-03-05T20:06:48.756Z,5.47
2019-03-05T20:09:21.638Z,5.20
2019-03-05T20:11:51.513Z,5.53
2019-03-05T20:14:21.834Z,5.77
2019-03-05T20:16:51.733Z,5.73
2019-03-05T20:19:21.928Z,5.63
2019-03-05T20:21:51.933Z,6.93
2019-03-05T20:24:22.015Z,5.93
2019-03-05T20:26:52.021Z,4.93
2019-03-05T20:29:21.938Z,6.10
2019-03-05T20:31:52.412Z,5.90
2019-03-05T20:34:22.354Z,6.10
2019-03-05T20:36:52.243Z,5.33
2019-03-05T20:39:22.142Z,5.77
2019-03-05T20:41:52.057Z,5.63
2019-03-05T20:44:22.003Z,6.43
2019-03-05T20:46:51.921Z,5.80
2019-03-05T20:49:21.866Z,6.13
2019-03-05T20:51:51.864Z,5.53
2019-03-05T20:54:21.798Z,6.00
2019-03-05T20:56:51.735Z,6.00
2019-03-05T20:59:22.338Z,7.13
2019-03-05T21:01:52.484Z,6.37
2019-03-05T21:04:22.482Z,7.70
2019-03-05T21:06:52.464Z,5.77
2019-03-05T21:09:26.323Z,5.50
2019-03-05T21:11:56.237Z,6.73
2019-03-05T21:14:26.605Z,5.70
2019-03-05T21:16:56.660Z,6.73
2019-03-05T21:19:26.651Z,5.77
2019-03-05T21:21:56.582Z,7.00
2019-03-05T21:24:26.733Z,7.23
2019-03-05T21:26:56.705Z,6.30
2019-03-05T21:29:26.628Z,5.63
2019-03-05T21:31:56.551Z,6.43
2019-03-05T21:34:26.469Z,6.77
2019-03-05T21:36:56.419Z,5.77
2019-03-05T21:39:26.438Z,6.73
2019-03-05T21:41:56.586Z,7.10
2019-03-05T21:44:26.691Z,6.10
2019-03-05T21:46:56.768Z,6.37
2019-03-05T21:49:27.176Z,6.23
2019-03-05T21:51:57.334Z,9.03
2019-03-05T21:54:27.505Z,6.83
2019-03-05T21:56:57.610Z,7.27
2019-03-05T21:59:27.638Z,7.33
2019-03-05T22:01:57.626Z,7.10
2019-03-05T22:04:28.024Z,7.90
2019-03-05T22:06:58.157Z,7.83
2019-03-05T22:09:28.464Z,7.40
2019-03-05T22:11:58.477Z,7.90
2019-03-05T22:14:28.865Z,9.13
2019-03-05T22:16:58.807Z,8.00
2019-03-05T22:19:28.655Z,9.90
2019-03-05T22:21:58.850Z,8.77
2019-03-05T22:24:29.719Z,9.13
2019-03-05T22:26:59.750Z,7.73
2019-03-05T22:29:29.669Z,9.37
2019-03-05T22:31:59.880Z,8.13
2019-03-05T22:34:30.064Z,7.73
2019-03-05T22:36:59.975Z,9.53
2019-03-05T22:39:29.881Z,9.17
2019-03-05T22:41:59.800Z,7.73
2019-03-05T22:44:29.773Z,9.37
2019-03-05T22:46:59.976Z,8.33
2019-03-05T22:49:30.093Z,9.47
2019-03-05T22:52:01.103Z,8.30
2019-03-05T22:54:31.528Z,9.60
2019-03-05T22:57:01.628Z,8.30
2019-03-05T22:59:32.238Z,8.63
2019-03-05T23:02:02.208Z,9.30
2019-03-05T23:04:38.993Z,7.50
2019-03-05T23:07:09.712Z,8.93
2019-03-05T23:09:39.631Z,8.27
2019-03-05T23:12:10.212Z,8.50
2019-03-05T23:14:40.166Z,7.87
2019-03-05T23:17:10.280Z,8.07
2019-03-05T23:19:40.165Z,8.33
2019-03-05T23:22:10.325Z,7.60
2019-03-05T23:24:40.453Z,7.93
2019-03-05T23:27:10.398Z,7.73
2019-03-05T23:29:45.699Z,8.63
2019-03-05T23:32:18.564Z,7.17
2019-03-05T23:34:48.834Z,8.00
2019-03-05T23:37:18.902Z,8.20
2019-03-05T23:39:48.989Z,7.93
2019-03-05T23:42:19.011Z,8.00
2019-03-05T23:44:48.910Z,8.37
2019-03-05T23:47:19.122Z,8.40
2019-03-05T23:49:49.124Z,8.20
2019-03-05T23:52:19.236Z,7.73
2019-03-05T23:54:49.148Z,7.33
2019-03-05T23:57:19.120Z,7.37
2019-03-05T23:59:49.182Z,8.57
